createdAt,value
2019-03-12T00:01:37.405Z,-3.30
2019-03-12T00:04:06.599Z,-3.30
2019-03-12T00:06:36.208Z,-3.30
2019-03-12T00:09:06.394Z,-3.30
2019-03-12T00:11:35.728Z,-3.30
2019-03-12T00:14:05.034Z,-3.30
2019-03-12T00:16:34.330Z,-3.40
2019-03-12T00:19:03.334Z,-3.30
2019-03-12T00:21:32.624Z,-3.30
2019-03-12T00:24:01.627Z,-3.30
2019-03-12T00:26:30.916Z,-3.30
2019-03-12T00:28:59.921Z,-3.30
2019-03-12T00:31:29.210Z,-3.30
2019-03-12T00:33:58.511Z,-3.30
2019-03-12T00:36:27.812Z,-3.30
2019-03-12T00:38:57.112Z,-3.20
2019-03-12T00:41:29.791Z,-3.30
2019-03-12T00:43:59.092Z,-3.20
2019-03-12T00:46:28.395Z,-3.20
2019-03-12T00:48:57.355Z,-3.20
2019-03-12T00:51:26.343Z,-3.10
2019-03-12T00:53:55.683Z,-3.10
2019-03-12T00:56:24.988Z,-3.10
2019-03-12T00:58:54.081Z,-3.20
2019-03-12T01:01:22.969Z,-3.20
2019-03-12T01:03:52.266Z,-3.20
2019-03-12T01:06:21.225Z,-3.20
2019-03-12T01:08:50.558Z,-3.30
2019-03-12T01:11:19.560Z,-3.40
2019-03-12T01:13:48.425Z,-3.40
2019-03-12T01:16:17.551Z,-3.40
2019-03-12T01:18:46.541Z,-3.40
2019-03-12T01:21:15.832Z,-3.30
2019-03-12T01:23:45.132Z,-3.30
2019-03-12T01:26:14.443Z,-3.20
2019-03-12T01:28:43.394Z,-3.10
2019-03-12T01:31:12.726Z,-3.10
2019-03-12T01:33:42.026Z,-3.10
2019-03-12T01:36:11.328Z,-3.10
2019-03-12T01:38:40.626Z,-3.20
2019-03-12T01:41:09.621Z,-3.20
2019-03-12T01:43:38.920Z,-3.10
2019-03-12T01:46:08.223Z,-3.10
2019-03-12T01:48:37.522Z,-3.10
2019-03-12T01:51:06.822Z,-3.20
2019-03-12T01:53:36.123Z,-3.20
2019-03-12T01:56:05.432Z,-3.10
2019-03-12T01:58:34.725Z,-3.10
2019-03-12T02:01:04.023Z,-3.10
2019-03-12T02:03:33.325Z,-3.00
2019-03-12T02:06:02.624Z,-2.80
2019-03-12T02:08:31.927Z,-2.80
2019-03-12T02:11:01.030Z,-2.60
2019-03-12T02:13:30.221Z,-2.60
2019-03-12T02:15:59.519Z,-2.50
2019-03-12T02:18:28.818Z,-2.40
2019-03-12T02:20:58.119Z,-2.40
2019-03-12T02:23:28.997Z,-2.30
2019-03-12T02:25:57.026Z,-2.30
2019-03-12T02:28:26.328Z,-2.30
2019-03-12T02:30:55.628Z,-2.20
2019-03-12T02:33:25.367Z,-2.30
2019-03-12T02:35:54.843Z,-2.20
2019-03-12T02:38:24.144Z,-2.20
2019-03-12T02:40:53.444Z,-2.10
2019-03-12T02:43:22.745Z,-2.10
2019-03-12T02:45:52.043Z,-2.10
2019-03-12T02:48:21.345Z,-2.10
2019-03-12T02:50:50.646Z,-2.10
2019-03-12T02:53:19.949Z,-2.10
2019-03-12T02:55:48.945Z,-2.20
2019-03-12T02:58:18.239Z,-2.30
2019-03-12T03:00:47.541Z,-2.30
2019-03-12T03:03:16.498Z,-2.30
2019-03-12T03:05:47.382Z,-2.20
2019-03-12T03:08:18.206Z,-2.20
2019-03-12T03:10:47.507Z,-2.20
2019-03-12T03:13:16.865Z,-2.20
2019-03-12T03:15:47.353Z,-2.10
2019-03-12T03:18:15.844Z,-2.10
2019-03-12T03:20:45.015Z,-2.00
2019-03-12T03:23:14.632Z,-2.10
2019-03-12T03:25:43.926Z,-2.10
2019-03-12T03:28:13.281Z,-2.00
2019-03-12T03:30:42.524Z,-1.90
2019-03-12T03:33:11.823Z,-2.00
2019-03-12T03:35:41.129Z,-2.00
2019-03-12T03:38:10.544Z,-2.00
2019-03-12T03:40:40.035Z,-1.90
2019-03-12T03:43:09.026Z,-1.90
2019-03-12T03:45:38.327Z,-1.90
2019-03-12T03:48:07.626Z,-1.80
2019-03-12T03:50:36.927Z,-1.80
2019-03-12T03:53:06.233Z,-1.80
2019-03-12T03:55:35.529Z,-1.80
2019-03-12T03:58:04.829Z,-1.80
2019-03-12T04:00:34.129Z,-1.70
2019-03-12T04:03:03.427Z,-1.70
2019-03-12T04:05:32.730Z,-1.70
2019-03-12T04:08:02.030Z,-1.70
2019-03-12T04:10:31.123Z,-1.70
2019-03-12T04:13:00.325Z,-1.70
2019-03-12T04:15:29.624Z,-1.80
2019-03-12T04:17:58.922Z,-1.70
2019-03-12T04:20:28.225Z,-1.70
2019-03-12T04:22:57.525Z,-1.70
2019-03-12T04:25:26.826Z,-1.80
2019-03-12T04:27:56.125Z,-1.70
2019-03-12T04:30:25.426Z,-1.70
2019-03-12T04:32:54.724Z,-1.70
2019-03-12T04:35:30.184Z,-1.60
2019-03-12T04:37:59.165Z,-1.60
2019-03-12T04:40:28.467Z,-1.60
2019-03-12T04:42:57.456Z,-1.60
2019-03-12T04:45:26.324Z,-1.60
2019-03-12T04:47:56.672Z,-1.50
2019-03-12T04:50:25.973Z,-1.50
2019-03-12T04:52:55.272Z,-1.50
2019-03-12T04:55:24.270Z,-1.50
2019-03-12T04:57:53.262Z,-1.50
2019-03-12T05:00:22.558Z,-1.60
2019-03-12T05:02:51.559Z,-1.70
2019-03-12T05:05:20.514Z,-1.70
2019-03-12T05:07:55.197Z,-1.80
2019-03-12T05:10:24.368Z,-1.70
2019-03-12T05:12:53.670Z,-1.70
2019-03-12T05:15:22.662Z,-1.70
2019-03-12T05:17:51.961Z,-1.80
2019-03-12T05:20:21.262Z,-1.90
2019-03-12T05:22:50.564Z,-1.90
2019-03-12T05:25:19.865Z,-1.90
2019-03-12T05:27:49.163Z,-1.90
2019-03-12T05:30:20.308Z,-1.90
2019-03-12T05:32:49.608Z,-1.90
2019-03-12T05:35:18.615Z,-1.80
2019-03-12T05:37:47.910Z,-1.80
2019-03-12T05:40:17.214Z,-1.70
2019-03-12T05:42:46.811Z,-1.70
2019-03-12T05:45:20.410Z,-1.60
2019-03-12T05:47:49.710Z,-1.60
2019-03-12T05:50:22.082Z,-1.50
2019-03-12T05:52:51.384Z,-1.60
2019-03-12T05:55:20.684Z,-1.60
2019-03-12T05:57:49.983Z,-1.60
2019-03-12T06:00:23.585Z,-1.60
2019-03-12T06:02:52.888Z,-1.60
2019-03-12T06:05:22.187Z,-1.50
2019-03-12T06:07:51.178Z,-1.40
2019-03-12T06:10:20.480Z,-1.40
2019-03-12T06:12:49.780Z,-1.40
2019-03-12T06:15:20.309Z,-1.30
2019-03-12T06:17:49.309Z,-1.40
2019-03-12T06:20:18.912Z,-1.30
2019-03-12T06:22:48.210Z,-1.40
2019-03-12T06:25:17.511Z,-1.30
2019-03-12T06:27:46.810Z,-1.40
2019-03-12T06:30:20.415Z,-1.40
2019-03-12T06:32:57.085Z,-1.40
2019-03-12T06:35:39.595Z,-1.40
2019-03-12T06:38:26.098Z,-1.40
2019-03-12T06:41:11.849Z,0.80
2019-03-12T06:43:48.354Z,3.40
2019-03-12T06:46:19.191Z,5.60
2019-03-12T06:49:01.085Z,7.30
2019-03-12T06:51:31.578Z,8.50
2019-03-12T06:54:18.438Z,9.50
2019-03-12T06:57:05.237Z,10.40
2019-03-12T06:59:38.700Z,11.20
2019-03-12T07:02:12.440Z,11.90
2019-03-12T07:04:55.257Z,12.50
2019-03-12T07:07:45.944Z,12.90
2019-03-12T07:10:14.748Z,13.40
2019-03-12T07:12:51.420Z,13.70
2019-03-12T07:15:25.021Z,14.00
2019-03-12T07:18:11.832Z,14.20
2019-03-12T07:20:42.671Z,14.40
2019-03-12T07:23:21.314Z,14.60
2019-03-12T07:25:57.858Z,14.70
2019-03-12T07:28:31.337Z,14.80
2019-03-12T07:31:10.941Z,15.00
2019-03-12T07:33:53.414Z,15.10
2019-03-12T07:36:40.225Z,15.20
2019-03-12T07:39:13.823Z,15.30
2019-03-12T07:41:51.522Z,15.40
2019-03-12T07:44:30.545Z,15.50
2019-03-12T07:47:07.090Z,15.50
2019-03-12T07:49:40.207Z,15.60
2019-03-12T07:52:11.044Z,15.70
2019-03-12T07:54:40.785Z,15.80
2019-03-12T07:57:17.016Z,15.80
2019-03-12T07:59:59.832Z,15.90
2019-03-12T08:02:36.813Z,16.00
2019-03-12T08:05:08.879Z,16.10
2019-03-12T08:07:56.002Z,16.10
2019-03-12T08:10:33.758Z,16.10
2019-03-12T08:13:08.115Z,16.20
2019-03-12T08:15:38.950Z,16.20
2019-03-12T08:18:18.080Z,16.30
2019-03-12T08:20:48.917Z,16.30
2019-03-12T08:23:18.831Z,16.30
2019-03-12T08:25:49.669Z,16.30
2019-03-12T08:28:19.453Z,16.40
2019-03-12T08:30:52.880Z,16.30
2019-03-12T08:33:35.222Z,16.40
2019-03-12T08:36:10.831Z,16.40
2019-03-12T08:38:53.034Z,16.40
2019-03-12T08:41:23.873Z,16.40
2019-03-12T08:44:06.073Z,16.40
2019-03-12T08:46:52.884Z,16.40
2019-03-12T08:49:23.416Z,16.40
2019-03-12T08:52:00.087Z,16.50
2019-03-12T08:54:54.192Z,16.50
2019-03-12T08:57:25.600Z,16.50
2019-03-12T08:59:58.877Z,16.60
2019-03-12T09:02:29.493Z,16.60
2019-03-12T09:05:00.078Z,16.60
2019-03-12T09:07:39.204Z,16.60
2019-03-12T09:10:28.781Z,16.60
2019-03-12T09:13:11.905Z,16.60
2019-03-12T09:18:54.133Z,16.70
2019-03-12T09:21:27.730Z,16.70
2019-03-12T09:24:07.658Z,16.70
2019-03-12T09:26:54.594Z,16.70
2019-03-12T09:29:40.483Z,16.70
2019-03-12T09:32:14.084Z,16.70
2019-03-12T09:34:47.684Z,16.70
2019-03-12T09:37:20.672Z,16.70
2019-03-12T09:39:51.618Z,16.60
2019-03-12T09:42:25.723Z,16.60
2019-03-12T09:44:59.599Z,16.60
2019-03-12T09:47:39.686Z,16.60
2019-03-12T09:50:11.750Z,16.60
2019-03-12T09:52:57.603Z,16.60
2019-03-12T09:55:37.384Z,16.50
2019-03-12T09:58:12.522Z,16.50
2019-03-12T10:00:49.503Z,16.50
2019-03-12T10:03:30.783Z,16.50
2019-03-12T10:06:01.620Z,16.50
2019-03-12T10:08:43.238Z,16.40
2019-03-12T10:11:19.880Z,16.40
2019-03-12T10:14:02.393Z,16.40
2019-03-12T10:16:39.064Z,16.50
2019-03-12T10:19:21.576Z,16.50
2019-03-12T10:21:52.412Z,16.50
2019-03-12T10:24:37.107Z,16.50
2019-03-12T10:27:24.803Z,16.50
2019-03-12T10:29:59.326Z,16.50
2019-03-12T10:32:48.297Z,16.50
2019-03-12T10:35:21.582Z,16.50
2019-03-12T10:38:02.259Z,16.60
2019-03-12T10:40:35.555Z,16.60
2019-03-12T10:43:11.146Z,16.60
2019-03-12T10:45:48.793Z,16.60
2019-03-12T10:48:27.920Z,16.60
2019-03-12T10:51:03.465Z,16.60
2019-03-12T10:53:36.869Z,16.60
2019-03-12T10:56:07.595Z,16.60
2019-03-12T10:58:37.865Z,16.60
2019-03-12T11:01:17.646Z,16.60
2019-03-12T11:03:47.899Z,16.60
2019-03-12T11:06:17.087Z,16.70
2019-03-12T11:08:47.329Z,16.70
2019-03-12T11:11:16.608Z,16.70
2019-03-12T11:13:46.833Z,16.80
2019-03-12T11:16:15.888Z,16.70
2019-03-12T11:18:44.831Z,16.80
2019-03-12T11:21:14.369Z,16.70
2019-03-12T11:23:45.022Z,16.70
2019-03-12T11:26:14.253Z,16.70
2019-03-12T11:28:43.410Z,16.70
2019-03-12T11:31:12.549Z,16.70
2019-03-12T11:33:41.850Z,16.80
2019-03-12T11:36:10.870Z,16.80
2019-03-12T11:38:40.143Z,16.90
2019-03-12T11:41:09.065Z,16.90
2019-03-12T11:43:38.435Z,16.90
2019-03-12T11:46:07.375Z,16.80
2019-03-12T11:48:37.900Z,16.80
2019-03-12T11:51:06.646Z,16.80
2019-03-12T11:53:35.952Z,16.70
2019-03-12T11:56:05.824Z,16.70
2019-03-12T11:58:34.864Z,16.60
2019-03-12T12:01:05.440Z,16.60
2019-03-12T12:03:34.683Z,16.70
2019-03-12T12:06:04.908Z,16.70
2019-03-12T12:08:34.213Z,16.70
2019-03-12T12:11:03.512Z,16.60
2019-03-12T12:13:33.704Z,16.60
2019-03-12T12:16:05.734Z,16.70
2019-03-12T12:18:35.811Z,16.70
2019-03-12T12:21:05.009Z,16.70
2019-03-12T12:23:34.037Z,16.70
2019-03-12T12:26:03.190Z,16.70
2019-03-12T12:28:32.294Z,16.70
2019-03-12T12:31:01.596Z,16.70
2019-03-12T12:33:30.897Z,16.70
2019-03-12T12:36:01.425Z,16.70
2019-03-12T12:38:31.961Z,16.70
2019-03-12T12:41:01.257Z,16.70
2019-03-12T12:43:30.556Z,16.70
2019-03-12T12:46:02.065Z,16.70
2019-03-12T12:48:31.082Z,16.70
2019-03-12T12:51:03.396Z,16.70
2019-03-12T12:53:30.440Z,16.70
2019-03-12T12:55:59.447Z,16.70
2019-03-12T12:58:28.815Z,16.70
2019-03-12T13:00:59.960Z,16.70
2019-03-12T13:03:29.263Z,16.70
2019-03-12T13:05:58.398Z,16.70
2019-03-12T13:08:28.167Z,16.70
2019-03-12T13:10:59.017Z,16.70
2019-03-12T13:13:29.226Z,16.70
2019-03-12T13:15:58.225Z,16.70
2019-03-12T13:18:28.434Z,16.70
2019-03-12T13:20:57.741Z,16.70
2019-03-12T13:23:27.593Z,16.70
2019-03-12T13:25:56.956Z,16.70
2019-03-12T13:28:27.507Z,16.70
2019-03-12T13:30:56.789Z,16.70
2019-03-12T13:33:27.632Z,16.70
2019-03-12T13:35:56.749Z,16.60
2019-03-12T13:38:44.495Z,16.60
2019-03-12T13:41:02.882Z,16.60
2019-03-12T13:43:30.049Z,16.60
2019-03-12T13:45:59.028Z,16.60
2019-03-12T13:48:28.340Z,16.60
2019-03-12T13:50:57.557Z,16.50
2019-03-12T13:53:26.326Z,16.50
2019-03-12T13:55:59.008Z,16.50
2019-03-12T13:58:29.388Z,16.50
2019-03-12T14:00:59.762Z,16.40
2019-03-12T14:03:28.706Z,16.40
2019-03-12T14:05:57.745Z,16.40
2019-03-12T14:08:27.046Z,16.30
2019-03-12T14:10:56.345Z,16.30
2019-03-12T14:13:28.717Z,16.40
2019-03-12T14:15:57.698Z,16.30
2019-03-12T14:18:26.673Z,16.30
2019-03-12T14:20:58.757Z,16.30
2019-03-12T14:23:36.353Z,16.30
2019-03-12T14:26:05.949Z,16.30
2019-03-12T14:28:36.797Z,16.30
2019-03-12T14:31:06.065Z,16.30
2019-03-12T14:33:35.092Z,16.30
2019-03-12T14:36:04.084Z,16.30
2019-03-12T14:38:33.332Z,16.30
2019-03-12T14:41:02.212Z,16.20
2019-03-12T14:43:33.828Z,16.30
2019-03-12T14:46:03.129Z,16.20
2019-03-12T14:48:40.423Z,16.20
2019-03-12T14:51:21.391Z,16.20
2019-03-12T14:53:51.003Z,16.20
2019-03-12T14:56:20.323Z,16.20
2019-03-12T14:58:51.277Z,16.20
2019-03-12T15:01:21.359Z,16.20
2019-03-12T15:03:50.189Z,16.20
2019-03-12T15:06:20.253Z,16.20
2019-03-12T15:08:52.421Z,16.20
2019-03-12T15:11:24.398Z,16.20
2019-03-12T15:13:53.438Z,16.20
2019-03-12T15:16:22.326Z,16.10
2019-03-12T15:18:52.128Z,16.10
2019-03-12T15:21:21.602Z,16.10
2019-03-12T15:23:50.592Z,16.10
2019-03-12T15:26:19.583Z,16.10
2019-03-12T15:28:48.743Z,16.10
2019-03-12T15:31:18.800Z,16.10
2019-03-12T15:33:47.763Z,16.10
2019-03-12T15:36:17.095Z,16.10
2019-03-12T15:38:46.114Z,16.00
2019-03-12T15:41:14.986Z,16.00
2019-03-12T15:43:43.766Z,16.00
2019-03-12T15:46:12.662Z,16.00
2019-03-12T15:48:41.439Z,16.00
2019-03-12T15:51:11.514Z,16.00
2019-03-12T15:53:42.206Z,16.00
2019-03-12T15:56:15.248Z,15.90
2019-03-12T15:58:45.389Z,15.90
2019-03-12T16:01:15.670Z,15.90
2019-03-12T16:03:45.858Z,15.90
2019-03-12T16:06:14.844Z,15.90
2019-03-12T16:08:43.837Z,15.90
2019-03-12T16:11:12.709Z,15.90
2019-03-12T16:13:41.519Z,15.90
2019-03-12T16:16:10.516Z,15.90
2019-03-12T16:18:39.502Z,15.90
2019-03-12T16:21:09.110Z,15.90
2019-03-12T16:23:38.104Z,15.90
2019-03-12T16:26:07.145Z,15.90
2019-03-12T16:28:36.090Z,15.90
2019-03-12T16:31:05.083Z,15.90
2019-03-12T16:33:34.078Z,15.90
2019-03-12T16:36:04.679Z,15.90
2019-03-12T16:38:34.521Z,15.90
2019-03-12T16:41:03.516Z,15.90
2019-03-12T16:43:32.517Z,15.90
2019-03-12T16:46:03.036Z,15.90
2019-03-12T16:48:32.951Z,15.90
2019-03-12T16:51:01.943Z,15.90
2019-03-12T16:53:30.832Z,15.90
2019-03-12T16:55:59.916Z,15.80
2019-03-12T16:58:32.081Z,15.90
2019-03-12T17:01:01.296Z,15.90
2019-03-12T17:03:30.290Z,15.80
2019-03-12T17:05:59.284Z,15.80
2019-03-12T17:08:28.276Z,15.80
2019-03-12T17:11:02.708Z,15.90
2019-03-12T17:13:30.552Z,15.90
2019-03-12T17:16:03.858Z,15.90
2019-03-12T17:18:35.387Z,15.90
2019-03-12T17:21:09.543Z,15.80
2019-03-12T17:23:38.433Z,15.90
2019-03-12T17:26:08.319Z,15.90
2019-03-12T17:28:38.349Z,15.90
2019-03-12T17:31:07.340Z,15.90
2019-03-12T17:33:37.361Z,15.90
2019-03-12T17:36:06.251Z,15.90
2019-03-12T17:38:46.133Z,15.90
2019-03-12T17:41:05.771Z,15.90
2019-03-12T17:43:37.620Z,15.90
2019-03-12T17:46:08.353Z,15.90
2019-03-12T17:48:40.429Z,15.80
2019-03-12T17:51:09.730Z,15.90
2019-03-12T17:53:39.645Z,15.90
2019-03-12T17:56:08.474Z,15.90
2019-03-12T17:58:38.861Z,15.90
2019-03-12T18:01:07.853Z,15.90
2019-03-12T18:03:38.383Z,15.90
2019-03-12T18:06:07.376Z,15.90
2019-03-12T18:08:37.911Z,15.90
2019-03-12T18:11:08.491Z,15.90
2019-03-12T18:13:37.372Z,15.90
2019-03-12T18:16:06.264Z,15.90
2019-03-12T18:18:35.106Z,15.90
2019-03-12T18:21:04.482Z,15.90
2019-03-12T18:23:33.708Z,15.90
2019-03-12T18:26:03.846Z,15.90
2019-03-12T18:28:32.463Z,15.90
2019-03-12T18:31:01.609Z,15.90
2019-03-12T18:33:30.602Z,15.90
2019-03-12T18:36:00.674Z,15.90
2019-03-12T18:38:29.519Z,15.90
2019-03-12T18:40:58.503Z,15.90
2019-03-12T18:43:27.803Z,15.90
2019-03-12T18:45:56.801Z,15.90
2019-03-12T18:48:26.405Z,15.90
2019-03-12T18:50:55.696Z,15.90
2019-03-12T18:53:24.698Z,15.90
2019-03-12T18:55:57.070Z,15.90
2019-03-12T18:58:26.064Z,15.90
2019-03-12T19:00:56.658Z,15.90
2019-03-12T19:03:25.893Z,15.90
2019-03-12T19:05:54.888Z,15.90
2019-03-12T19:08:23.879Z,15.90
2019-03-12T19:10:52.891Z,15.90
2019-03-12T19:13:21.748Z,15.90
2019-03-12T19:15:51.728Z,15.90
2019-03-12T19:18:22.310Z,15.90
2019-03-12T19:20:52.823Z,15.90
2019-03-12T19:23:21.833Z,15.90
2019-03-12T19:25:50.674Z,15.90
2019-03-12T19:28:20.434Z,15.80
2019-03-12T19:30:50.661Z,15.80
2019-03-12T19:33:22.722Z,15.80
2019-03-12T19:35:51.714Z,15.80
2019-03-12T19:38:21.323Z,15.80
2019-03-12T19:40:56.924Z,15.80
2019-03-12T19:43:25.761Z,15.80
2019-03-12T19:45:57.824Z,15.80
2019-03-12T19:48:27.127Z,15.80
2019-03-12T19:50:56.070Z,15.80
2019-03-12T19:53:25.773Z,15.80
2019-03-12T19:55:57.793Z,15.90
2019-03-12T19:58:28.554Z,15.90
2019-03-12T20:00:59.176Z,15.80
2019-03-12T20:03:28.150Z,15.90
2019-03-12T20:05:57.143Z,15.90
2019-03-12T20:08:26.136Z,15.90
2019-03-12T20:11:19.399Z,15.90
2019-03-12T20:14:11.435Z,15.80
2019-03-12T20:17:11.760Z,15.80
2019-03-12T20:20:01.621Z,15.80
2019-03-12T20:22:52.958Z,15.80
2019-03-12T20:25:59.950Z,15.80
2019-03-12T20:29:00.504Z,15.80
2019-03-12T20:31:42.979Z,15.70
2019-03-12T20:34:20.566Z,15.70
2019-03-12T20:37:12.000Z,15.70
2019-03-12T20:40:00.472Z,15.60
2019-03-12T20:42:58.219Z,15.60
2019-03-12T20:45:42.266Z,15.60
2019-03-12T20:48:34.691Z,15.60
2019-03-12T20:51:38.028Z,15.60
2019-03-12T20:54:26.377Z,15.50
2019-03-12T20:57:21.461Z,15.50
2019-03-12T21:00:11.045Z,15.50
2019-03-12T21:03:14.588Z,15.50
2019-03-12T21:06:04.917Z,15.50
2019-03-12T21:08:56.657Z,15.50
2019-03-12T21:11:47.752Z,15.50
2019-03-12T21:14:22.455Z,15.50
2019-03-12T21:17:17.703Z,15.60
2019-03-12T21:20:23.954Z,15.60
2019-03-12T21:22:58.763Z,15.60
2019-03-12T21:25:48.890Z,15.60
2019-03-12T21:28:33.243Z,15.60
2019-03-12T21:31:02.238Z,15.60
2019-03-12T21:33:32.152Z,15.60
2019-03-12T21:36:01.143Z,15.60
2019-03-12T21:38:30.136Z,15.60
2019-03-12T21:40:59.129Z,15.60
2019-03-12T21:43:28.122Z,15.60
2019-03-12T21:45:57.115Z,15.60
2019-03-12T21:48:26.110Z,15.60
2019-03-12T21:50:55.101Z,15.60
2019-03-12T21:53:24.096Z,15.50
2019-03-12T21:55:53.090Z,15.60
2019-03-12T21:58:22.087Z,15.60
2019-03-12T22:00:51.080Z,15.60
2019-03-12T22:03:21.296Z,15.60
2019-03-12T22:05:50.290Z,15.60
2019-03-12T22:08:19.282Z,15.60
2019-03-12T22:10:48.279Z,15.60
2019-03-12T22:13:17.269Z,15.60
2019-03-12T22:15:47.494Z,15.60
2019-03-12T22:18:16.485Z,15.60
2019-03-12T22:20:45.482Z,15.60
2019-03-12T22:23:28.294Z,15.60
2019-03-12T22:25:57.293Z,15.60
2019-03-12T22:28:26.281Z,15.60
2019-03-12T22:30:55.153Z,15.60
2019-03-12T22:33:23.941Z,15.60
2019-03-12T22:35:52.841Z,15.60
2019-03-12T22:38:21.633Z,15.60
2019-03-12T22:40:50.513Z,15.60
2019-03-12T22:43:19.319Z,15.60
2019-03-12T22:45:48.315Z,15.60
2019-03-12T22:48:17.304Z,15.60
2019-03-12T22:50:46.615Z,15.60
2019-03-12T22:53:15.486Z,15.60
2019-03-12T22:55:44.288Z,15.60
2019-03-12T22:58:13.279Z,15.60
2019-03-12T23:00:42.271Z,15.60
2019-03-12T23:03:11.263Z,15.60
2019-03-12T23:05:40.569Z,15.60
2019-03-12T23:08:09.559Z,15.60
2019-03-12T23:10:38.840Z,15.60
2019-03-12T23:13:07.852Z,15.60
2019-03-12T23:15:36.851Z,15.60
2019-03-12T23:18:05.838Z,15.60
2019-03-12T23:20:34.676Z,15.60
2019-03-12T23:23:03.524Z,15.60
2019-03-12T23:25:32.511Z,15.60
2019-03-12T23:28:01.815Z,15.60
2019-03-12T23:30:30.786Z,15.60
2019-03-12T23:32:59.800Z,15.60
2019-03-12T23:35:28.792Z,15.60
2019-03-12T23:37:57.785Z,15.60
2019-03-12T23:40:26.776Z,15.60
2019-03-12T23:42:55.636Z,15.60
2019-03-12T23:45:24.462Z,15.60
2019-03-12T23:47:55.907Z,15.60
2019-03-12T23:50:27.357Z,15.60
2019-03-12T23:52:56.351Z,15.60
2019-03-12T23:55:25.344Z,15.60
2019-03-12T23:57:54.340Z,15.60
